createdAt,value
2023-05-06T00:00:56.000Z,12.5
2023-05-06T00:02:02.000Z,12.2
2023-05-06T00:03:08.000Z,12.2
2023-05-06T00:04:14.000Z,12.8
2023-05-06T00:05:20.000Z,12.2
2023-05-06T00:06:26.000Z,12.5
2023-05-06T00:07:32.000Z,12.2
2023-05-06T00:08:38.000Z,12.5
2023-05-06T00:09:44.000Z,12.5
2023-05-06T00:10:50.000Z,12.8
2023-05-06T00:11:56.000Z,13.2
2023-05-06T00:13:02.000Z,12.5
2023-05-06T00:14:07.000Z,12.2
2023-05-06T00:15:13.000Z,13.2
2023-05-06T00:16:20.000Z,12.5
2023-05-06T00:17:25.000Z,12.8
2023-05-06T00:18:31.000Z,11.9
2023-05-06T00:19:37.000Z,12.2
2023-05-06T00:20:43.000Z,12.8
2023-05-06T00:21:49.000Z,12.2
2023-05-06T00:22:55.000Z,12.8
2023-05-06T00:24:01.000Z,11.9
2023-05-06T00:25:07.000Z,13.8
2023-05-06T00:26:13.000Z,12.2
2023-05-06T00:27:19.000Z,12.5
2023-05-06T00:28:25.000Z,12.8
2023-05-06T00:29:31.000Z,13.5
2023-05-06T00:30:38.000Z,12.5
2023-05-06T00:31:43.000Z,12.8
2023-05-06T00:32:49.000Z,12.8
2023-05-06T00:33:55.000Z,12.8
2023-05-06T00:35:01.000Z,12.8
2023-05-06T00:36:07.000Z,12.8
2023-05-06T00:38:19.000Z,12.8
2023-05-06T00:39:25.000Z,12.2
2023-05-06T00:40:31.000Z,13.2
2023-05-06T00:41:37.000Z,12.2
2023-05-06T00:42:43.000Z,12.2
2023-05-06T00:43:50.000Z,12.8
2023-05-06T00:44:55.000Z,11.9
2023-05-06T00:46:00.000Z,12.5
2023-05-06T00:47:05.000Z,12.2
2023-05-06T00:49:16.000Z,12.2
2023-05-06T00:50:22.000Z,12.2
2023-05-06T00:51:28.000Z,12.8
2023-05-06T00:52:34.000Z,12.5
2023-05-06T00:53:40.000Z,13.2
2023-05-06T00:54:46.000Z,12.2
2023-05-06T00:55:53.000Z,12.2
2023-05-06T00:56:59.000Z,12.2
2023-05-06T00:58:05.000Z,12.8
2023-05-06T00:59:11.000Z,13.2
2023-05-06T01:00:17.000Z,12.8
2023-05-06T01:01:23.000Z,11.9
2023-05-06T01:02:28.000Z,13.2
2023-05-06T01:03:34.000Z,12.5
2023-05-06T01:04:40.000Z,12.8
2023-05-06T01:05:46.000Z,12.8
2023-05-06T01:07:58.000Z,12.8
2023-05-06T01:09:04.000Z,12.8
2023-05-06T01:10:10.000Z,12.5
2023-05-06T01:11:17.000Z,12.2
2023-05-06T01:12:23.000Z,12.8
2023-05-06T01:13:29.000Z,13.5
2023-05-06T01:14:35.000Z,12.2
2023-05-06T01:15:41.000Z,12.2
2023-05-06T01:16:46.000Z,12.2
2023-05-06T01:17:52.000Z,12.2
2023-05-06T01:18:58.000Z,12.2
2023-05-06T01:20:04.000Z,12.8
2023-05-06T01:21:10.000Z,12.8
2023-05-06T01:22:16.000Z,12.8
2023-05-06T01:23:22.000Z,12.8
2023-05-06T01:24:28.000Z,12.8
2023-05-06T01:25:35.000Z,12.8
2023-05-06T01:26:41.000Z,12.8
2023-05-06T01:27:47.000Z,12.5
2023-05-06T01:28:53.000Z,12.8
2023-05-06T01:29:59.000Z,11.2
2023-05-06T01:31:04.000Z,12.8
2023-05-06T01:32:10.000Z,12.8
2023-05-06T01:33:16.000Z,12.5
2023-05-06T01:34:22.000Z,12.2
2023-05-06T01:35:28.000Z,12.5
2023-05-06T01:36:34.000Z,12.8
2023-05-06T01:37:40.000Z,12.2
2023-05-06T01:38:46.000Z,12.5
2023-05-06T01:39:52.000Z,11.9
2023-05-06T01:40:59.000Z,12.2
2023-05-06T01:42:05.000Z,11.6
2023-05-06T01:44:17.000Z,11.9
2023-05-06T01:45:22.000Z,12.2
2023-05-06T01:46:28.000Z,12.8
2023-05-06T01:47:34.000Z,12.2
2023-05-06T01:49:46.000Z,12.5
2023-05-06T01:50:52.000Z,12.5
2023-05-06T01:51:58.000Z,12.5
2023-05-06T01:53:05.000Z,12.5
2023-05-06T01:54:11.000Z,12.2
2023-05-06T01:55:17.000Z,12.8
2023-05-06T01:56:23.000Z,12.5
2023-05-06T01:57:29.000Z,12.8
2023-05-06T01:58:35.000Z,12.5
2023-05-06T01:59:40.000Z,12.2
2023-05-06T02:00:46.000Z,12.8
2023-05-06T02:01:52.000Z,13.2
2023-05-06T02:02:58.000Z,12.5
2023-05-06T02:04:04.000Z,12.5
2023-05-06T02:05:10.000Z,12.2
2023-05-06T02:06:16.000Z,12.5
2023-05-06T02:07:22.000Z,12.8
2023-05-06T02:08:29.000Z,12.8
2023-05-06T02:09:35.000Z,12.8
2023-05-06T02:10:41.000Z,12.8
2023-05-06T02:11:47.000Z,12.2
2023-05-06T02:12:53.000Z,12.2
2023-05-06T02:13:58.000Z,11.9
2023-05-06T02:15:04.000Z,12.2
2023-05-06T02:16:10.000Z,13.2
2023-05-06T02:17:16.000Z,12.2
2023-05-06T02:18:22.000Z,12.2
2023-05-06T02:19:28.000Z,12.5
2023-05-06T02:20:34.000Z,11.2
2023-05-06T02:21:40.000Z,11.9
2023-05-06T02:22:46.000Z,12.2
2023-05-06T02:23:53.000Z,11.6
2023-05-06T02:24:59.000Z,11.6
2023-05-06T02:26:05.000Z,12.2
2023-05-06T02:27:11.000Z,12.8
2023-05-06T02:28:16.000Z,12.5
2023-05-06T02:29:22.000Z,12.2
2023-05-06T02:30:28.000Z,12.2
2023-05-06T02:31:34.000Z,12.5
2023-05-06T02:32:40.000Z,11.9
2023-05-06T02:33:46.000Z,11.9
2023-05-06T02:34:52.000Z,12.5
2023-05-06T02:35:58.000Z,12.2
2023-05-06T02:37:04.000Z,11.9
2023-05-06T02:39:17.000Z,12.2
2023-05-06T02:40:23.000Z,11.9
2023-05-06T02:41:29.000Z,12.2
2023-05-06T02:42:34.000Z,12.5
2023-05-06T02:43:40.000Z,11.9
2023-05-06T02:44:46.000Z,12.5
2023-05-06T02:45:52.000Z,12.2
2023-05-06T02:46:58.000Z,12.2
2023-05-06T02:48:04.000Z,11.9
2023-05-06T02:49:10.000Z,11.9
2023-05-06T02:50:16.000Z,11.6
2023-05-06T02:51:23.000Z,12.2
2023-05-06T02:52:29.000Z,11.9
2023-05-06T02:53:35.000Z,11.9
2023-05-06T02:54:41.000Z,11.9
2023-05-06T02:55:47.000Z,11.9
2023-05-06T02:56:52.000Z,12.5
2023-05-06T02:57:58.000Z,12.2
2023-05-06T02:59:04.000Z,12.2
2023-05-06T03:00:10.000Z,12.2
2023-05-06T03:01:16.000Z,12.2
2023-05-06T03:02:22.000Z,11.9
2023-05-06T03:03:28.000Z,12.5
2023-05-06T03:04:34.000Z,12.5
2023-05-06T03:05:40.000Z,11.9
2023-05-06T03:06:47.000Z,12.5
2023-05-06T03:07:53.000Z,12.8
2023-05-06T03:08:59.000Z,11.6
2023-05-06T03:10:05.000Z,11.9
2023-05-06T03:11:10.000Z,11.9
2023-05-06T03:12:16.000Z,13.2
2023-05-06T03:13:22.000Z,12.5
2023-05-06T03:14:28.000Z,12.5
2023-05-06T03:15:34.000Z,11.9
2023-05-06T03:16:40.000Z,12.8
2023-05-06T03:17:46.000Z,12.2
2023-05-06T03:18:52.000Z,11.6
2023-05-06T03:19:58.000Z,11.6
2023-05-06T03:21:04.000Z,11.9
2023-05-06T03:23:17.000Z,12.2
2023-05-06T03:24:23.000Z,12.2
2023-05-06T03:25:28.000Z,11.2
2023-05-06T03:26:34.000Z,12.8
2023-05-06T03:27:40.000Z,12.5
2023-05-06T03:28:46.000Z,12.2
2023-05-06T03:29:52.000Z,11.9
2023-05-06T03:30:58.000Z,12.2
2023-05-06T03:32:04.000Z,11.6
2023-05-06T03:34:17.000Z,11.6
2023-05-06T03:35:23.000Z,12.2
2023-05-06T03:36:29.000Z,11.9
2023-05-06T03:37:35.000Z,11.9
2023-05-06T03:38:41.000Z,11.9
2023-05-06T03:39:46.000Z,11.9
2023-05-06T03:40:52.000Z,11.9
2023-05-06T03:41:58.000Z,12.2
2023-05-06T03:43:04.000Z,12.5
2023-05-06T03:44:10.000Z,11.9
2023-05-06T03:45:16.000Z,12.2
2023-05-06T03:46:22.000Z,11.6
2023-05-06T03:47:28.000Z,12.2
2023-05-06T03:48:34.000Z,11.9
2023-05-06T03:49:41.000Z,11.2
2023-05-06T03:50:47.000Z,12.2
2023-05-06T03:51:53.000Z,11.9
2023-05-06T03:52:59.000Z,11.9
2023-05-06T03:54:04.000Z,11.9
2023-05-06T03:57:22.000Z,11.9
2023-05-06T03:58:27.000Z,12.2
2023-05-06T03:59:33.000Z,11.6
2023-05-06T04:00:39.000Z,11.6
2023-05-06T04:01:45.000Z,11.2
2023-05-06T04:02:51.000Z,11.6
2023-05-06T04:03:58.000Z,11.2
2023-05-06T04:05:04.000Z,11.6
2023-05-06T04:06:10.000Z,12.2
2023-05-06T04:07:16.000Z,11.6
2023-05-06T04:08:22.000Z,11.9
2023-05-06T04:09:28.000Z,11.2
2023-05-06T04:10:34.000Z,11.6
2023-05-06T04:11:40.000Z,11.6
2023-05-06T04:12:45.000Z,12.5
2023-05-06T04:13:51.000Z,12.2
2023-05-06T04:14:57.000Z,11.9
2023-05-06T04:16:04.000Z,12.2
2023-05-06T04:17:10.000Z,11.9
2023-05-06T04:18:16.000Z,11.9
2023-05-06T04:19:22.000Z,11.2
2023-05-06T04:20:28.000Z,11.6
2023-05-06T04:21:34.000Z,11.9
2023-05-06T04:22:40.000Z,11.2
2023-05-06T04:23:46.000Z,12.5
2023-05-06T04:24:52.000Z,11.2
2023-05-06T04:25:58.000Z,11.6
2023-05-06T04:27:03.000Z,11.9
2023-05-06T04:28:09.000Z,11.9
2023-05-06T04:29:15.000Z,11.6
2023-05-06T04:30:21.000Z,11.9
2023-05-06T04:32:34.000Z,11.6
2023-05-06T04:33:40.000Z,13.5
2023-05-06T04:34:46.000Z,12.2
2023-05-06T04:35:52.000Z,11.6
2023-05-06T04:36:58.000Z,11.2
2023-05-06T04:38:04.000Z,11.6
2023-05-06T04:39:10.000Z,11.9
2023-05-06T04:40:16.000Z,12.2
2023-05-06T04:41:21.000Z,11.9
2023-05-06T04:42:27.000Z,11.9
2023-05-06T04:43:33.000Z,12.2
2023-05-06T04:44:39.000Z,11.9
2023-05-06T04:45:45.000Z,12.2
2023-05-06T04:46:52.000Z,11.6
2023-05-06T04:47:58.000Z,11.9
2023-05-06T04:49:04.000Z,11.2
2023-05-06T04:51:16.000Z,11.6
2023-05-06T04:52:22.000Z,11.9
2023-05-06T04:53:28.000Z,11.6
2023-05-06T04:54:34.000Z,11.9
2023-05-06T04:55:39.000Z,12.2
2023-05-06T04:56:45.000Z,11.9
2023-05-06T04:57:51.000Z,11.6
2023-05-06T04:58:57.000Z,12.2
2023-05-06T05:00:04.000Z,11.2
2023-05-06T05:01:10.000Z,12.2
2023-05-06T05:02:16.000Z,11.9
2023-05-06T05:03:22.000Z,11.9
2023-05-06T05:04:28.000Z,11.9
2023-05-06T05:05:34.000Z,11.9
2023-05-06T05:06:40.000Z,11.9
2023-05-06T05:07:46.000Z,12.2
2023-05-06T05:08:51.000Z,11.6
2023-05-06T05:09:56.000Z,11.6
2023-05-06T05:11:01.000Z,11.6
2023-05-06T05:13:13.000Z,11.9
2023-05-06T05:14:19.000Z,11.9
2023-05-06T05:15:25.000Z,11.9
2023-05-06T05:16:31.000Z,12.2
2023-05-06T05:17:37.000Z,11.6
2023-05-06T05:18:43.000Z,11.9
2023-05-06T05:20:55.000Z,11.6
2023-05-06T05:22:01.000Z,12.2
2023-05-06T05:23:07.000Z,11.6
2023-05-06T05:24:13.000Z,12.2
2023-05-06T05:25:19.000Z,11.9
2023-05-06T05:27:30.000Z,12.2
2023-05-06T05:28:36.000Z,11.9
2023-05-06T05:29:41.000Z,11.9
2023-05-06T05:30:47.000Z,11.9
2023-05-06T05:31:53.000Z,11.6
2023-05-06T05:32:59.000Z,11.9
2023-05-06T05:35:11.000Z,12.2
2023-05-06T05:36:17.000Z,11.9
2023-05-06T05:37:23.000Z,11.9
2023-05-06T05:38:29.000Z,11.9
2023-05-06T05:39:35.000Z,12.2
2023-05-06T05:40:41.000Z,11.9
2023-05-06T05:41:48.000Z,11.9
2023-05-06T05:42:54.000Z,11.9
2023-05-06T05:43:59.000Z,11.6
2023-05-06T05:45:05.000Z,10.9
2023-05-06T05:46:11.000Z,11.9
2023-05-06T05:47:17.000Z,12.5
2023-05-06T05:48:23.000Z,11.9
2023-05-06T05:49:29.000Z,11.9
2023-05-06T05:50:35.000Z,11.2
2023-05-06T05:51:41.000Z,12.2
2023-05-06T05:52:46.000Z,11.6
2023-05-06T05:53:52.000Z,10.9
2023-05-06T05:54:58.000Z,11.2
2023-05-06T05:56:04.000Z,10.9
2023-05-06T05:57:10.000Z,11.6
2023-05-06T05:58:16.000Z,11.9
2023-05-06T05:59:22.000Z,11.2
2023-05-06T06:00:28.000Z,11.2
2023-05-06T06:02:40.000Z,12.5
2023-05-06T06:03:46.000Z,11.6
2023-05-06T06:04:52.000Z,11.2
2023-05-06T06:05:58.000Z,11.9
2023-05-06T06:07:04.000Z,11.9
2023-05-06T06:08:10.000Z,11.9
2023-05-06T06:09:16.000Z,11.9
2023-05-06T06:10:21.000Z,11.2
2023-05-06T06:11:28.000Z,11.9
2023-05-06T06:12:34.000Z,11.6
2023-05-06T06:13:40.000Z,12.2
2023-05-06T06:14:46.000Z,11.2
2023-05-06T06:15:52.000Z,11.9
2023-05-06T06:16:58.000Z,11.6
2023-05-06T06:19:10.000Z,11.2
2023-05-06T06:20:16.000Z,11.9
2023-05-06T06:21:22.000Z,12.5
2023-05-06T06:22:28.000Z,10.9
2023-05-06T06:23:34.000Z,11.6
2023-05-06T06:24:40.000Z,11.9
2023-05-06T06:26:52.000Z,11.2
2023-05-06T06:27:58.000Z,10.9
2023-05-06T06:29:04.000Z,11.2
2023-05-06T06:30:10.000Z,10.9
2023-05-06T06:31:16.000Z,11.2
2023-05-06T06:32:22.000Z,11.6
2023-05-06T06:33:28.000Z,11.6
2023-05-06T06:34:34.000Z,11.2
2023-05-06T06:35:40.000Z,11.2
2023-05-06T06:36:46.000Z,11.6
2023-05-06T06:37:52.000Z,11.9
2023-05-06T06:38:58.000Z,11.2
2023-05-06T06:40:04.000Z,12.2
2023-05-06T06:42:16.000Z,11.2
2023-05-06T06:43:22.000Z,10.9
2023-05-06T06:44:28.000Z,11.9
2023-05-06T06:45:34.000Z,11.6
2023-05-06T06:46:40.000Z,11.2
2023-05-06T06:47:46.000Z,11.9
2023-05-06T06:48:52.000Z,11.6
2023-05-06T06:49:58.000Z,11.6
2023-05-06T06:51:04.000Z,11.9
2023-05-06T06:52:10.000Z,11.6
2023-05-06T06:53:15.000Z,11.6
2023-05-06T06:55:28.000Z,11.9
2023-05-06T06:56:34.000Z,11.6
2023-05-06T06:57:40.000Z,11.2
2023-05-06T06:58:46.000Z,11.9
2023-05-06T06:59:52.000Z,11.2
2023-05-06T07:00:58.000Z,11.9
2023-05-06T07:02:04.000Z,11.2
2023-05-06T07:03:10.000Z,11.2
2023-05-06T07:04:16.000Z,12.2
2023-05-06T07:05:22.000Z,11.6
2023-05-06T07:06:28.000Z,11.9
2023-05-06T07:07:34.000Z,11.2
2023-05-06T07:08:39.000Z,11.9
2023-05-06T07:09:46.000Z,12.2
2023-05-06T07:10:52.000Z,11.6
2023-05-06T07:11:58.000Z,11.2
2023-05-06T07:14:10.000Z,11.2
2023-05-06T07:15:16.000Z,11.6
2023-05-06T07:16:22.000Z,11.6
2023-05-06T07:17:28.000Z,11.2
2023-05-06T07:18:34.000Z,11.6
2023-05-06T07:19:40.000Z,11.9
2023-05-06T07:20:46.000Z,11.9
2023-05-06T07:21:52.000Z,11.6
2023-05-06T07:22:58.000Z,11.2
2023-05-06T07:25:10.000Z,11.2
2023-05-06T07:26:16.000Z,11.9
2023-05-06T07:27:22.000Z,11.2
2023-05-06T07:28:28.000Z,12.2
2023-05-06T07:29:34.000Z,11.2
2023-05-06T07:30:40.000Z,11.6
2023-05-06T07:31:46.000Z,11.9
2023-05-06T07:32:52.000Z,11.6
2023-05-06T07:33:58.000Z,11.2
2023-05-06T07:35:04.000Z,11.2
2023-05-06T07:36:10.000Z,11.9
2023-05-06T07:37:16.000Z,12.5
2023-05-06T07:38:22.000Z,11.2
2023-05-06T07:39:27.000Z,11.2
2023-05-06T07:40:33.000Z,11.6
2023-05-06T07:41:39.000Z,11.9
2023-05-06T07:42:45.000Z,11.6
2023-05-06T07:43:51.000Z,11.2
2023-05-06T07:44:57.000Z,11.9
2023-05-06T07:46:03.000Z,11.2
2023-05-06T07:47:09.000Z,11.2
2023-05-06T07:48:15.000Z,11.6
2023-05-06T07:50:27.000Z,11.6
2023-05-06T07:51:33.000Z,11.6
2023-05-06T07:52:40.000Z,12.2
2023-05-06T07:53:45.000Z,11.6
2023-05-06T07:54:51.000Z,11.9
2023-05-06T07:55:57.000Z,11.9
2023-05-06T07:58:09.000Z,12.2
2023-05-06T07:59:15.000Z,11.2
2023-05-06T08:00:21.000Z,11.9
2023-05-06T08:01:27.000Z,11.6
2023-05-06T08:02:33.000Z,11.9
2023-05-06T08:03:39.000Z,12.2
2023-05-06T08:04:46.000Z,11.2
2023-05-06T08:05:52.000Z,10.9
2023-05-06T08:06:58.000Z,11.2
2023-05-06T08:08:03.000Z,12.2
2023-05-06T08:10:15.000Z,11.6
2023-05-06T08:11:20.000Z,11.6
2023-05-06T08:12:25.000Z,11.2
2023-05-06T08:13:31.000Z,11.6
2023-05-06T08:14:37.000Z,12.8
2023-05-06T08:15:43.000Z,11.6
2023-05-06T08:16:49.000Z,12.2
2023-05-06T08:17:55.000Z,11.2
2023-05-06T08:20:08.000Z,11.6
2023-05-06T08:21:14.000Z,11.2
2023-05-06T08:22:20.000Z,11.9
2023-05-06T08:23:26.000Z,11.6
2023-05-06T08:24:32.000Z,11.2
2023-05-06T08:25:38.000Z,11.6
2023-05-06T08:26:43.000Z,12.5
2023-05-06T08:27:49.000Z,11.6
2023-05-06T08:28:55.000Z,11.9
2023-05-06T08:31:07.000Z,11.6
2023-05-06T08:32:13.000Z,11.9
2023-05-06T08:33:18.000Z,11.9
2023-05-06T08:34:24.000Z,10.9
2023-05-06T08:35:30.000Z,11.2
2023-05-06T08:36:36.000Z,11.2
2023-05-06T08:37:42.000Z,12.5
2023-05-06T08:38:48.000Z,11.2
2023-05-06T08:39:54.000Z,11.6
2023-05-06T08:41:00.000Z,11.9
2023-05-06T08:42:06.000Z,10.9
2023-05-06T08:43:12.000Z,11.9
2023-05-06T08:44:17.000Z,12.5
2023-05-06T08:45:23.000Z,11.9
2023-05-06T08:46:29.000Z,10.9
2023-05-06T08:47:35.000Z,11.6
2023-05-06T08:48:41.000Z,12.8
2023-05-06T08:50:53.000Z,10.9
2023-05-06T08:51:59.000Z,11.9
2023-05-06T08:53:05.000Z,11.9
2023-05-06T08:54:11.000Z,11.6
2023-05-06T08:55:17.000Z,12.2
2023-05-06T08:56:23.000Z,11.2
2023-05-06T08:57:29.000Z,12.2
2023-05-06T08:58:35.000Z,12.2
2023-05-06T08:59:41.000Z,12.2
2023-05-06T09:00:47.000Z,11.9
2023-05-06T09:01:53.000Z,12.5
2023-05-06T09:04:05.000Z,11.9
2023-05-06T09:05:11.000Z,11.2
2023-05-06T09:06:17.000Z,11.9
2023-05-06T09:07:22.000Z,12.2
2023-05-06T09:08:27.000Z,11.2
2023-05-06T09:09:33.000Z,11.2
2023-05-06T09:10:39.000Z,11.6
2023-05-06T09:11:45.000Z,11.6
2023-05-06T09:12:51.000Z,11.2
2023-05-06T09:15:04.000Z,12.2
2023-05-06T09:16:10.000Z,12.2
2023-05-06T09:17:16.000Z,11.6
2023-05-06T09:18:22.000Z,12.2
2023-05-06T09:19:28.000Z,11.9
2023-05-06T09:20:34.000Z,12.8
2023-05-06T09:21:40.000Z,12.2
2023-05-06T09:22:46.000Z,11.2
2023-05-06T09:23:51.000Z,11.6
2023-05-06T09:27:09.000Z,11.9
2023-05-06T09:28:15.000Z,11.2
2023-05-06T09:29:22.000Z,10.9
2023-05-06T09:30:28.000Z,12.2
2023-05-06T09:31:34.000Z,12.2
2023-05-06T09:32:40.000Z,11.2
2023-05-06T09:33:46.000Z,11.9
2023-05-06T09:34:52.000Z,12.2
2023-05-06T09:35:58.000Z,12.5
2023-05-06T09:37:04.000Z,11.9
2023-05-06T09:40:21.000Z,11.9
2023-05-06T09:41:27.000Z,11.9
2023-05-06T09:42:33.000Z,12.8
2023-05-06T09:43:39.000Z,12.2
2023-05-06T09:44:46.000Z,12.2
2023-05-06T09:45:52.000Z,11.6
2023-05-06T09:46:58.000Z,12.5
2023-05-06T09:48:04.000Z,11.9
2023-05-06T09:49:10.000Z,11.2
2023-05-06T09:50:16.000Z,11.6
2023-05-06T09:51:22.000Z,12.2
2023-05-06T09:52:28.000Z,12.2
2023-05-06T09:53:34.000Z,12.2
2023-05-06T09:54:39.000Z,12.2
2023-05-06T09:55:45.000Z,11.9
2023-05-06T09:56:51.000Z,11.9
2023-05-06T09:59:03.000Z,11.6
2023-05-06T10:00:10.000Z,11.9
2023-05-06T10:01:16.000Z,12.2
2023-05-06T10:02:22.000Z,12.2
2023-05-06T10:03:28.000Z,11.6
2023-05-06T10:04:34.000Z,11.9
2023-05-06T10:06:45.000Z,12.2
2023-05-06T10:07:50.000Z,12.2
2023-05-06T10:10:02.000Z,12.5
2023-05-06T10:11:08.000Z,11.6
2023-05-06T10:12:15.000Z,11.9
2023-05-06T10:13:21.000Z,12.5
2023-05-06T10:14:27.000Z,11.6
2023-05-06T10:15:33.000Z,11.9
2023-05-06T10:16:39.000Z,11.9
2023-05-06T10:17:45.000Z,11.9
2023-05-06T10:18:51.000Z,12.2
2023-05-06T10:19:57.000Z,12.2
2023-05-06T10:21:03.000Z,12.5
2023-05-06T10:22:09.000Z,12.5
2023-05-06T10:23:15.000Z,12.2
2023-05-06T10:24:21.000Z,12.2
2023-05-06T10:25:27.000Z,11.9
2023-05-06T10:26:33.000Z,11.9
2023-05-06T10:29:51.000Z,12.2
2023-05-06T10:32:03.000Z,12.2
2023-05-06T10:33:09.000Z,11.6
2023-05-06T10:34:15.000Z,12.2
2023-05-06T10:35:21.000Z,12.5
2023-05-06T10:36:27.000Z,11.9
2023-05-06T10:37:33.000Z,12.2
2023-05-06T10:39:45.000Z,11.9
2023-05-06T10:40:51.000Z,12.2
2023-05-06T10:41:58.000Z,11.9
2023-05-06T10:43:03.000Z,12.8
2023-05-06T10:46:21.000Z,12.8
2023-05-06T10:47:27.000Z,12.5
2023-05-06T10:48:33.000Z,11.9
2023-05-06T10:49:39.000Z,12.5
2023-05-06T10:50:45.000Z,12.2
2023-05-06T10:51:51.000Z,12.2
2023-05-06T10:54:03.000Z,12.2
2023-05-06T10:55:10.000Z,11.9
2023-05-06T10:57:22.000Z,12.2
2023-05-06T10:58:28.000Z,11.9
2023-05-06T10:59:34.000Z,12.2
2023-05-06T11:00:39.000Z,11.9
2023-05-06T11:01:45.000Z,11.9
2023-05-06T11:02:51.000Z,12.2
2023-05-06T11:06:09.000Z,12.2
2023-05-06T11:07:15.000Z,12.2
2023-05-06T11:08:21.000Z,11.6
2023-05-06T11:09:28.000Z,12.2
2023-05-06T11:10:34.000Z,12.2
2023-05-06T11:12:46.000Z,12.5
2023-05-06T11:13:52.000Z,12.5
2023-05-06T11:16:03.000Z,12.5
2023-05-06T11:17:09.000Z,13.2
2023-05-06T11:18:15.000Z,12.2
2023-05-06T11:19:21.000Z,12.2
2023-05-06T11:21:32.000Z,12.5
2023-05-06T11:23:43.000Z,12.2
2023-05-06T11:24:50.000Z,12.5
2023-05-06T11:27:01.000Z,12.2
2023-05-06T11:29:13.000Z,12.5
2023-05-06T11:30:19.000Z,12.2
2023-05-06T11:31:25.000Z,12.8
2023-05-06T11:32:31.000Z,12.5
2023-05-06T11:33:37.000Z,12.8
2023-05-06T11:34:43.000Z,13.2
2023-05-06T11:36:54.000Z,12.5
2023-05-06T11:39:07.000Z,13.2
2023-05-06T11:40:13.000Z,12.8
2023-05-06T11:41:19.000Z,13.2
2023-05-06T11:42:25.000Z,13.2
2023-05-06T11:43:30.000Z,12.2
2023-05-06T11:44:36.000Z,12.2
2023-05-06T11:45:42.000Z,11.9
2023-05-06T11:46:48.000Z,13.2
2023-05-06T11:49:00.000Z,12.5
2023-05-06T11:50:06.000Z,12.5
2023-05-06T11:52:19.000Z,13.2
2023-05-06T11:53:25.000Z,12.2
2023-05-06T11:54:31.000Z,12.5
2023-05-06T11:55:37.000Z,13.2
2023-05-06T11:56:43.000Z,12.5
2023-05-06T11:57:49.000Z,12.5
2023-05-06T11:58:55.000Z,12.8
2023-05-06T12:01:06.000Z,12.5
2023-05-06T12:02:12.000Z,12.8
2023-05-06T12:03:18.000Z,12.2
2023-05-06T12:05:30.000Z,12.8
2023-05-06T12:06:36.000Z,13.5
2023-05-06T12:07:43.000Z,12.2
2023-05-06T12:08:49.000Z,12.8
2023-05-06T12:12:07.000Z,13.5
2023-05-06T12:13:13.000Z,13.2
2023-05-06T12:15:25.000Z,11.9
2023-05-06T12:16:31.000Z,13.5
2023-05-06T12:17:36.000Z,13.5
2023-05-06T12:18:42.000Z,12.8
2023-05-06T12:19:48.000Z,13.5
2023-05-06T12:20:54.000Z,13.2
2023-05-06T12:22:01.000Z,13.5
2023-05-06T12:23:07.000Z,13.2
2023-05-06T12:25:19.000Z,13.5
2023-05-06T12:26:25.000Z,13.5
2023-05-06T12:27:31.000Z,12.5
2023-05-06T12:28:37.000Z,13.8
2023-05-06T12:29:43.000Z,13.5
2023-05-06T12:30:49.000Z,13.8
2023-05-06T12:33:01.000Z,12.8
2023-05-06T12:35:14.000Z,13.5
2023-05-06T12:36:20.000Z,13.5
2023-05-06T12:37:26.000Z,13.2
2023-05-06T12:38:32.000Z,13.8
2023-05-06T12:39:37.000Z,13.2
2023-05-06T12:40:43.000Z,13.5
2023-05-06T12:41:49.000Z,14.1
2023-05-06T12:44:01.000Z,13.5
2023-05-06T12:47:19.000Z,13.5
2023-05-06T12:48:25.000Z,13.5
2023-05-06T12:49:31.000Z,13.2
2023-05-06T12:50:38.000Z,13.2
2023-05-06T12:51:44.000Z,12.8
2023-05-06T12:52:50.000Z,13.5
2023-05-06T12:55:01.000Z,13.5
2023-05-06T12:56:07.000Z,14.1
2023-05-06T12:57:13.000Z,13.5
2023-05-06T12:58:19.000Z,14.1
2023-05-06T12:59:25.000Z,12.8
2023-05-06T13:00:31.000Z,13.8
2023-05-06T13:01:37.000Z,13.5
2023-05-06T13:02:43.000Z,12.8
2023-05-06T13:03:49.000Z,14.8
2023-05-06T13:04:56.000Z,12.8
2023-05-06T13:06:02.000Z,13.5
2023-05-06T13:09:20.000Z,13.8
2023-05-06T13:10:26.000Z,13.2
2023-05-06T13:11:32.000Z,13.5
2023-05-06T13:12:37.000Z,13.8
2023-05-06T13:13:43.000Z,13.5
2023-05-06T13:14:49.000Z,13.8
2023-05-06T13:17:01.000Z,14.1
2023-05-06T13:19:13.000Z,13.8
2023-05-06T13:20:20.000Z,13.5
2023-05-06T13:21:26.000Z,13.8
2023-05-06T13:22:32.000Z,13.2
2023-05-06T13:23:38.000Z,14.1
2023-05-06T13:24:44.000Z,13.8
2023-05-06T13:25:50.000Z,14.5
2023-05-06T13:28:02.000Z,13.2
2023-05-06T13:29:07.000Z,13.8
2023-05-06T13:30:13.000Z,13.8
2023-05-06T13:31:19.000Z,13.8
2023-05-06T13:32:25.000Z,13.8
2023-05-06T13:33:32.000Z,13.2
2023-05-06T13:34:38.000Z,13.8
2023-05-06T13:35:44.000Z,13.2
2023-05-06T13:36:50.000Z,13.5
2023-05-06T13:37:56.000Z,13.8
2023-05-06T13:39:02.000Z,13.8
2023-05-06T13:40:08.000Z,14.1
2023-05-06T13:41:14.000Z,13.8
2023-05-06T13:42:19.000Z,14.5
2023-05-06T13:43:25.000Z,13.8
2023-05-06T13:44:30.000Z,14.1
2023-05-06T13:46:42.000Z,14.5
2023-05-06T13:50:01.000Z,14.1
2023-05-06T13:51:07.000Z,13.8
2023-05-06T13:53:19.000Z,13.8
2023-05-06T13:54:25.000Z,14.5
2023-05-06T13:55:31.000Z,14.1
2023-05-06T13:56:37.000Z,13.8
2023-05-06T13:57:43.000Z,13.8
2023-05-06T13:58:48.000Z,13.8
2023-05-06T14:02:06.000Z,13.5
2023-05-06T14:04:19.000Z,13.8
2023-05-06T14:05:25.000Z,13.8
2023-05-06T14:06:31.000Z,14.1
2023-05-06T14:08:42.000Z,14.1
2023-05-06T14:09:48.000Z,13.8
2023-05-06T14:10:54.000Z,14.1
2023-05-06T14:13:06.000Z,14.1
2023-05-06T14:14:12.000Z,13.2
2023-05-06T14:15:18.000Z,13.8
2023-05-06T14:16:24.000Z,13.8
2023-05-06T14:17:31.000Z,14.1
2023-05-06T14:18:37.000Z,13.8
2023-05-06T14:19:43.000Z,13.5
2023-05-06T14:20:49.000Z,14.5
2023-05-06T14:21:55.000Z,14.1
2023-05-06T14:23:00.000Z,13.2
2023-05-06T14:24:06.000Z,14.1
2023-05-06T14:25:12.000Z,14.5
2023-05-06T14:26:18.000Z,14.1
2023-05-06T14:27:24.000Z,14.1
2023-05-06T14:29:36.000Z,14.5
2023-05-06T14:30:43.000Z,13.8
2023-05-06T14:34:01.000Z,14.5
2023-05-06T14:37:19.000Z,14.1
2023-05-06T14:39:31.000Z,14.5
2023-05-06T14:40:36.000Z,14.1
2023-05-06T14:41:42.000Z,14.1
2023-05-06T14:46:07.000Z,14.1
2023-05-06T14:47:13.000Z,14.5
2023-05-06T14:48:19.000Z,14.8
2023-05-06T14:49:25.000Z,14.1
2023-05-06T14:50:31.000Z,14.1
2023-05-06T14:51:37.000Z,14.5
2023-05-06T14:52:43.000Z,14.5
2023-05-06T14:53:49.000Z,14.1
2023-05-06T14:54:55.000Z,14.5
2023-05-06T14:56:01.000Z,14.5
2023-05-06T14:58:13.000Z,14.1
2023-05-06T14:59:19.000Z,14.5
2023-05-06T15:00:25.000Z,14.8
2023-05-06T15:01:32.000Z,13.5
2023-05-06T15:02:37.000Z,14.1
2023-05-06T15:03:43.000Z,14.1
2023-05-06T15:04:49.000Z,14.1
2023-05-06T15:07:01.000Z,14.5
2023-05-06T15:08:07.000Z,14.5
2023-05-06T15:10:19.000Z,15.1
2023-05-06T15:11:25.000Z,13.8
2023-05-06T15:12:31.000Z,13.8
2023-05-06T15:13:38.000Z,14.8
2023-05-06T15:14:44.000Z,14.1
2023-05-06T15:15:50.000Z,15.1
2023-05-06T15:18:02.000Z,14.1
2023-05-06T15:19:08.000Z,13.8
2023-05-06T15:20:14.000Z,13.8
2023-05-06T15:21:20.000Z,13.8
2023-05-06T15:23:31.000Z,14.8
2023-05-06T15:24:36.000Z,14.1
2023-05-06T15:25:42.000Z,14.5
2023-05-06T15:26:48.000Z,14.8
2023-05-06T15:27:54.000Z,14.8
2023-05-06T15:30:07.000Z,14.1
2023-05-06T15:31:13.000Z,14.8
2023-05-06T15:32:19.000Z,14.5
2023-05-06T15:34:31.000Z,14.8
2023-05-06T15:35:37.000Z,14.8
2023-05-06T15:36:43.000Z,14.1
2023-05-06T15:37:49.000Z,14.1
2023-05-06T15:38:55.000Z,14.5
2023-05-06T15:40:00.000Z,14.5
2023-05-06T15:41:06.000Z,14.1
2023-05-06T15:42:12.000Z,14.5
2023-05-06T15:43:19.000Z,14.8
2023-05-06T15:44:25.000Z,14.1
2023-05-06T15:45:31.000Z,14.1
2023-05-06T15:46:37.000Z,14.8
2023-05-06T15:47:43.000Z,14.5
2023-05-06T15:48:49.000Z,14.8
2023-05-06T15:51:01.000Z,14.1
2023-05-06T15:52:07.000Z,15.1
2023-05-06T15:53:13.000Z,14.5
2023-05-06T15:54:18.000Z,15.1
2023-05-06T15:55:24.000Z,14.5
2023-05-06T15:56:30.000Z,14.8
2023-05-06T15:58:42.000Z,14.5
2023-05-06T16:01:59.000Z,14.1
2023-05-06T16:03:05.000Z,14.8
2023-05-06T16:04:11.000Z,14.5
2023-05-06T16:05:17.000Z,14.5
2023-05-06T16:06:23.000Z,14.8
2023-05-06T16:07:29.000Z,14.5
2023-05-06T16:08:35.000Z,14.1
2023-05-06T16:09:41.000Z,14.5
2023-05-06T16:13:00.000Z,14.8
2023-05-06T16:14:06.000Z,14.5
2023-05-06T16:15:12.000Z,15.1
2023-05-06T16:16:18.000Z,14.1
2023-05-06T16:17:24.000Z,14.5
2023-05-06T16:18:30.000Z,13.8
2023-05-06T16:19:35.000Z,15.1
2023-05-06T16:20:41.000Z,15.1
2023-05-06T16:22:53.000Z,14.5
2023-05-06T16:23:59.000Z,14.5
2023-05-06T16:25:05.000Z,15.1
2023-05-06T16:26:11.000Z,15.1
2023-05-06T16:27:18.000Z,15.1
2023-05-06T16:29:30.000Z,15.1
2023-05-06T16:30:36.000Z,15.1
2023-05-06T16:31:42.000Z,14.5
2023-05-06T16:32:48.000Z,13.5
2023-05-06T16:33:54.000Z,14.1
2023-05-06T16:36:05.000Z,14.8
2023-05-06T16:37:11.000Z,14.8
2023-05-06T16:38:17.000Z,14.5